createdAt,value
2022-12-23T00:00:41.941Z,6.20
2022-12-23T00:03:23.817Z,6.20
2022-12-23T00:05:51.352Z,6.20
2022-12-23T00:08:19.783Z,6.20
2022-12-23T00:10:48.634Z,6.20
2022-12-23T00:13:35.049Z,6.10
2022-12-23T00:16:04.464Z,6.10
2022-12-23T00:18:35.134Z,6.10
2022-12-23T00:21:09.423Z,6.10
2022-12-23T00:23:42.056Z,6.10
2022-12-23T00:26:17.898Z,6.10
2022-12-23T00:28:45.696Z,6.10
2022-12-23T00:31:13.679Z,6.00
2022-12-23T00:33:45.895Z,6.00
2022-12-23T00:36:20.698Z,5.90
2022-12-23T00:39:07.178Z,5.90
2022-12-23T00:41:53.612Z,5.80
2022-12-23T00:44:21.297Z,5.60
2022-12-23T00:46:48.902Z,5.60
2022-12-23T00:49:36.671Z,5.60
2022-12-23T00:52:05.104Z,5.60
2022-12-23T00:54:33.060Z,5.60
2022-12-23T00:57:00.793Z,5.60
2022-12-23T00:59:28.429Z,5.60
2022-12-23T01:02:14.519Z,5.60
2022-12-23T01:05:00.519Z,5.50
2022-12-23T01:07:27.655Z,5.50
2022-12-23T01:09:54.912Z,5.40
2022-12-23T01:12:21.976Z,5.40
2022-12-23T01:14:49.752Z,5.30
2022-12-23T01:17:16.894Z,5.30
2022-12-23T01:19:44.484Z,5.30
2022-12-23T01:22:11.466Z,5.20
2022-12-23T01:24:39.095Z,5.20
2022-12-23T01:27:06.072Z,5.20
2022-12-23T01:29:33.410Z,5.20
2022-12-23T01:32:00.461Z,5.20
2022-12-23T01:34:34.335Z,5.20
2022-12-23T01:37:03.728Z,5.20
2022-12-23T01:39:31.217Z,5.20
2022-12-23T01:42:16.925Z,5.20
2022-12-23T01:45:04.527Z,5.20
2022-12-23T01:47:55.995Z,5.10
2022-12-23T01:50:40.830Z,5.10
2022-12-23T01:53:21.838Z,5.00
2022-12-23T01:55:59.246Z,5.00
2022-12-23T01:58:34.248Z,5.00
2022-12-23T02:01:20.763Z,4.90
2022-12-23T02:03:51.773Z,4.90
2022-12-23T02:06:51.414Z,4.80
2022-12-23T02:09:23.227Z,4.80
2022-12-23T02:11:50.446Z,4.70
2022-12-23T02:15:12.246Z,4.70
2022-12-23T02:17:57.788Z,4.70
2022-12-23T02:20:33.664Z,4.60
2022-12-23T02:23:24.159Z,4.60
2022-12-23T02:26:12.251Z,4.50
2022-12-23T02:29:33.628Z,4.50
2022-12-23T02:32:19.742Z,4.50
2022-12-23T02:35:00.646Z,4.40
2022-12-23T02:37:37.905Z,4.40
2022-12-23T02:40:22.390Z,4.40
2022-12-23T02:43:13.562Z,4.40
2022-12-23T02:45:53.217Z,4.40
2022-12-23T02:48:40.486Z,4.40
2022-12-23T02:51:09.578Z,4.40
2022-12-23T02:53:50.972Z,4.40
2022-12-23T02:56:21.521Z,4.50
2022-12-23T02:58:56.961Z,4.40
2022-12-23T03:01:27.748Z,4.40
2022-12-23T03:03:54.848Z,4.40
2022-12-23T03:06:30.531Z,4.40
2022-12-23T03:08:59.773Z,4.40
2022-12-23T03:11:51.282Z,4.40
2022-12-23T03:14:48.854Z,4.30
2022-12-23T03:17:38.560Z,4.30
2022-12-23T03:20:14.744Z,4.30
2022-12-23T03:23:21.586Z,4.30
2022-12-23T03:26:16.445Z,4.30
2022-12-23T03:28:45.929Z,4.30
2022-12-23T03:31:18.335Z,4.30
2022-12-23T03:33:51.910Z,4.30
2022-12-23T03:36:24.692Z,4.30
2022-12-23T03:38:55.415Z,4.30
2022-12-23T03:41:33.507Z,4.30
2022-12-23T03:44:12.768Z,4.30
2022-12-23T03:46:45.795Z,4.40
2022-12-23T03:49:55.264Z,4.50
2022-12-23T03:52:28.414Z,4.50
2022-12-23T03:54:59.394Z,4.50
2022-12-23T03:57:34.742Z,4.50
2022-12-23T04:00:02.112Z,4.40
2022-12-23T04:02:47.072Z,4.40
2022-12-23T04:05:39.536Z,4.30
2022-12-23T04:08:15.844Z,4.20
2022-12-23T04:10:43.646Z,4.20
2022-12-23T04:13:10.695Z,4.20
2022-12-23T04:15:42.413Z,4.10
2022-12-23T04:18:11.435Z,4.10
2022-12-23T04:20:39.026Z,4.10
2022-12-23T04:23:06.040Z,4.10
2022-12-23T04:25:33.452Z,4.10
2022-12-23T04:28:00.547Z,4.10
2022-12-23T04:30:33.524Z,4.20
2022-12-23T04:33:01.906Z,4.20
2022-12-23T04:35:29.536Z,4.20
2022-12-23T04:37:56.534Z,4.20
2022-12-23T04:40:24.029Z,4.10
2022-12-23T04:42:51.037Z,4.10
2022-12-23T04:45:18.371Z,4.00
2022-12-23T04:47:45.397Z,4.10
2022-12-23T04:50:16.488Z,4.10
2022-12-23T04:52:44.179Z,4.10
2022-12-23T04:55:12.567Z,4.20
2022-12-23T04:57:40.045Z,4.20
2022-12-23T05:00:08.300Z,4.20
2022-12-23T05:02:35.376Z,4.20
2022-12-23T05:05:03.304Z,4.30
2022-12-23T05:07:30.441Z,4.30
2022-12-23T05:10:01.818Z,4.30
2022-12-23T05:12:29.995Z,4.30
2022-12-23T05:14:57.343Z,4.30
2022-12-23T05:17:24.495Z,4.30
2022-12-23T05:19:51.879Z,4.30
2022-12-23T05:22:18.995Z,4.30
2022-12-23T05:24:46.238Z,4.20
2022-12-23T05:27:13.195Z,4.20
2022-12-23T05:29:40.469Z,4.20
2022-12-23T05:32:07.685Z,4.20
2022-12-23T05:34:35.025Z,4.30
2022-12-23T05:37:02.090Z,4.30
2022-12-23T05:39:29.614Z,4.40
2022-12-23T05:41:56.551Z,4.40
2022-12-23T05:44:24.113Z,4.40
2022-12-23T05:46:51.122Z,4.40
2022-12-23T05:49:18.812Z,4.40
2022-12-23T05:51:45.857Z,4.40
2022-12-23T05:54:13.427Z,4.40
2022-12-23T05:56:40.675Z,4.30
2022-12-23T05:59:08.314Z,4.30
2022-12-23T06:01:35.337Z,4.30
2022-12-23T06:04:03.013Z,4.20
2022-12-23T06:06:30.130Z,4.20
2022-12-23T06:08:59.794Z,4.30
2022-12-23T06:11:27.868Z,4.30
2022-12-23T06:13:55.612Z,4.20
2022-12-23T06:16:22.764Z,4.20
2022-12-23T06:18:53.799Z,4.10
2022-12-23T06:21:20.910Z,4.10
2022-12-23T06:23:48.626Z,4.10
2022-12-23T06:26:15.572Z,4.10
2022-12-23T06:28:42.906Z,4.10
2022-12-23T06:31:09.908Z,4.10
2022-12-23T06:33:37.246Z,4.10
2022-12-23T06:36:04.845Z,4.10
2022-12-23T06:38:32.483Z,4.20
2022-12-23T06:40:59.585Z,4.20
2022-12-23T06:43:27.006Z,4.20
2022-12-23T06:45:53.997Z,4.30
2022-12-23T06:48:21.400Z,4.30
2022-12-23T06:50:48.415Z,4.30
2022-12-23T06:53:15.647Z,4.40
2022-12-23T06:55:43.157Z,4.40
2022-12-23T06:58:10.536Z,4.40
2022-12-23T07:00:37.535Z,4.40
2022-12-23T07:03:05.277Z,4.50
2022-12-23T07:05:37.446Z,4.50
2022-12-23T07:08:05.832Z,4.50
2022-12-23T07:10:34.450Z,4.60
2022-12-23T07:13:01.967Z,4.60
2022-12-23T07:15:29.165Z,4.60
2022-12-23T07:17:56.438Z,4.60
2022-12-23T07:20:23.510Z,4.60
2022-12-23T07:22:53.682Z,4.70
2022-12-23T07:25:20.815Z,4.70
2022-12-23T07:27:48.652Z,4.70
2022-12-23T07:30:15.908Z,4.70
2022-12-23T07:32:43.441Z,4.70
2022-12-23T07:35:10.478Z,4.80
2022-12-23T07:37:38.036Z,4.70
2022-12-23T07:40:08.823Z,4.80
2022-12-23T07:42:46.309Z,4.80
2022-12-23T07:45:13.975Z,4.80
2022-12-23T07:47:41.707Z,4.80
2022-12-23T07:50:09.201Z,4.80
2022-12-23T07:52:36.524Z,4.90
2022-12-23T07:55:03.831Z,4.90
2022-12-23T07:57:37.416Z,4.90
2022-12-23T08:00:07.253Z,4.90
2022-12-23T08:02:35.139Z,4.90
2022-12-23T08:05:02.427Z,4.90
2022-12-23T08:07:29.827Z,4.90
2022-12-23T08:09:56.769Z,4.90
2022-12-23T08:12:25.018Z,4.90
2022-12-23T08:14:52.977Z,4.90
2022-12-23T08:17:23.818Z,5.00
2022-12-23T08:19:50.870Z,5.00
2022-12-23T08:22:18.383Z,5.00
2022-12-23T08:24:45.396Z,5.00
2022-12-23T08:27:13.157Z,5.00
2022-12-23T08:29:40.461Z,4.90
2022-12-23T08:32:08.094Z,4.90
2022-12-23T08:39:48.443Z,4.90
2022-12-23T08:42:16.079Z,4.90
2022-12-23T08:44:43.078Z,4.90
2022-12-23T08:47:10.710Z,4.90
2022-12-23T08:49:37.736Z,4.90
2022-12-23T08:52:05.455Z,4.90
2022-12-23T08:54:32.600Z,5.00
2022-12-23T08:57:00.035Z,4.90
2022-12-23T08:59:27.011Z,5.00
2022-12-23T09:01:54.426Z,5.00
2022-12-23T09:04:21.480Z,5.00
2022-12-23T09:06:49.094Z,5.00
2022-12-23T09:09:16.440Z,5.00
2022-12-23T09:11:43.842Z,5.00
2022-12-23T09:14:11.440Z,5.00
2022-12-23T09:16:39.505Z,5.00
2022-12-23T09:19:07.836Z,5.10
2022-12-23T09:21:35.300Z,5.10
2022-12-23T09:24:02.315Z,5.10
2022-12-23T09:26:31.354Z,5.10
2022-12-23T09:28:59.144Z,5.10
2022-12-23T09:31:34.094Z,5.20
2022-12-23T09:34:03.341Z,5.20
2022-12-23T09:36:31.188Z,5.20
2022-12-23T09:38:59.189Z,5.20
2022-12-23T09:41:26.710Z,5.30
2022-12-23T09:44:07.663Z,5.30
2022-12-23T09:46:43.016Z,5.30
2022-12-23T09:49:15.220Z,5.30
2022-12-23T09:51:42.543Z,5.40
2022-12-23T09:54:20.634Z,5.30
2022-12-23T09:57:06.440Z,5.30
2022-12-23T09:59:51.315Z,5.30
2022-12-23T10:02:48.189Z,5.40
2022-12-23T10:05:35.464Z,5.40
2022-12-23T10:08:26.385Z,5.40
2022-12-23T10:11:23.953Z,5.40
2022-12-23T10:13:56.375Z,5.40
2022-12-23T10:16:28.386Z,5.40
2022-12-23T10:19:28.332Z,5.50
2022-12-23T10:22:10.117Z,5.50
2022-12-23T10:24:44.276Z,5.50
2022-12-23T10:27:23.554Z,5.60
2022-12-23T10:29:50.832Z,5.60
2022-12-23T10:32:17.880Z,5.60
2022-12-23T10:34:59.354Z,5.70
2022-12-23T10:38:00.638Z,5.70
2022-12-23T10:40:53.769Z,5.70
2022-12-23T10:43:26.876Z,5.70
2022-12-23T10:45:56.940Z,5.80
2022-12-23T10:49:08.565Z,5.80
2022-12-23T10:51:53.435Z,5.80
2022-12-23T10:54:35.367Z,5.80
2022-12-23T10:57:05.590Z,5.90
2022-12-23T10:59:35.588Z,5.90
2022-12-23T11:02:13.647Z,6.00
2022-12-23T11:04:49.306Z,6.10
2022-12-23T11:10:15.799Z,6.20
2022-12-23T11:12:49.663Z,6.20
2022-12-23T11:15:33.207Z,6.20
2022-12-23T11:18:06.071Z,6.30
2022-12-23T11:20:35.076Z,6.30
2022-12-23T11:23:04.283Z,6.30
2022-12-23T11:25:40.573Z,6.30
2022-12-23T11:28:11.883Z,6.30
2022-12-23T11:30:55.173Z,6.30
2022-12-23T11:33:32.743Z,6.20
2022-12-23T11:36:14.675Z,6.20
2022-12-23T11:39:11.838Z,6.20
2022-12-23T11:41:50.380Z,6.20
2022-12-23T11:44:39.143Z,6.20
2022-12-23T11:47:29.090Z,6.30
2022-12-23T11:49:59.191Z,6.30
2022-12-23T11:52:31.608Z,6.20
2022-12-23T11:55:01.663Z,6.30
2022-12-23T11:57:34.488Z,6.30
2022-12-23T12:00:05.027Z,6.30
2022-12-23T12:02:52.508Z,6.30
2022-12-23T12:05:27.718Z,6.30
2022-12-23T12:08:00.140Z,6.30
2022-12-23T12:10:38.231Z,6.40
2022-12-23T12:13:22.088Z,6.40
2022-12-23T12:15:54.292Z,6.40
2022-12-23T12:18:22.101Z,6.50
2022-12-23T12:20:56.082Z,6.50
2022-12-23T12:23:45.286Z,6.50
2022-12-23T12:26:29.238Z,6.50
2022-12-23T12:29:20.831Z,6.50
2022-12-23T12:31:55.325Z,6.50
2022-12-23T12:34:50.963Z,6.50
2022-12-23T12:37:38.325Z,6.50
2022-12-23T12:40:21.136Z,6.60
2022-12-23T12:42:56.818Z,6.60
2022-12-23T12:45:55.490Z,6.60
2022-12-23T12:48:46.253Z,6.60
2022-12-23T12:51:31.980Z,6.60
2022-12-23T12:54:37.396Z,6.60
2022-12-23T12:57:04.641Z,6.60
2022-12-23T12:59:36.158Z,6.60
2022-12-23T13:02:29.327Z,6.60
2022-12-23T13:04:56.625Z,6.60
2022-12-23T13:07:52.743Z,6.60
2022-12-23T13:10:44.555Z,6.60
2022-12-23T13:13:40.974Z,6.60
2022-12-23T13:16:24.317Z,6.60
2022-12-23T13:19:12.204Z,6.70
2022-12-23T13:22:03.074Z,6.70
2022-12-23T13:24:36.729Z,6.70
2022-12-23T13:27:13.076Z,6.70
2022-12-23T13:29:56.275Z,6.80
2022-12-23T13:32:45.554Z,6.80
2022-12-23T13:35:12.485Z,6.80
2022-12-23T13:38:10.192Z,6.70
2022-12-23T13:41:11.129Z,6.80
2022-12-23T13:43:44.348Z,6.80
2022-12-23T13:46:41.301Z,6.80
2022-12-23T13:49:20.330Z,6.80
2022-12-23T13:52:05.036Z,6.80
2022-12-23T13:54:44.304Z,6.80
2022-12-23T13:57:26.193Z,6.90
2022-12-23T14:00:19.214Z,6.90
2022-12-23T14:02:49.037Z,6.90
2022-12-23T14:05:33.623Z,6.90
2022-12-23T14:08:19.461Z,6.90
2022-12-23T14:11:09.280Z,6.90
2022-12-23T14:13:45.038Z,6.90
2022-12-23T14:16:40.294Z,6.90
2022-12-23T14:19:37.962Z,6.90
2022-12-23T14:22:29.089Z,6.80
2022-12-23T14:25:38.628Z,6.90
2022-12-23T14:28:19.878Z,6.80
2022-12-23T14:30:47.099Z,6.80
2022-12-23T14:33:23.869Z,6.70
2022-12-23T14:35:56.924Z,6.70
2022-12-23T14:38:32.680Z,6.70
2022-12-23T14:41:37.944Z,6.70
2022-12-23T14:44:21.874Z,6.60
2022-12-23T14:46:48.919Z,6.60
2022-12-23T14:49:41.237Z,6.60
2022-12-23T14:52:48.440Z,6.50
2022-12-23T14:55:31.246Z,6.50
2022-12-23T14:58:17.783Z,6.50
2022-12-23T15:00:47.867Z,6.40
2022-12-23T15:03:17.344Z,6.40
2022-12-23T15:05:45.129Z,6.30
2022-12-23T15:08:52.354Z,6.30
2022-12-23T15:11:31.443Z,6.20
2022-12-23T15:14:02.492Z,6.20
2022-12-23T15:16:41.981Z,6.10
2022-12-23T15:19:18.041Z,6.10
2022-12-23T15:21:49.175Z,6.10
2022-12-23T15:24:22.020Z,6.00
2022-12-23T15:27:24.641Z,6.00
2022-12-23T15:29:47.538Z,6.00
2022-12-23T15:32:15.499Z,5.90
2022-12-23T15:34:43.201Z,5.80
2022-12-23T15:37:12.365Z,5.80
2022-12-23T15:39:44.989Z,5.80
2022-12-23T15:42:31.334Z,5.70
2022-12-23T15:44:58.707Z,5.70
2022-12-23T15:47:29.311Z,5.70
2022-12-23T15:50:00.490Z,5.60
2022-12-23T15:52:30.554Z,5.60
2022-12-23T15:55:12.396Z,5.60
2022-12-23T15:57:50.091Z,5.60
2022-12-23T16:00:32.157Z,5.60
2022-12-23T16:03:01.584Z,5.60
2022-12-23T16:05:31.085Z,5.60
2022-12-23T16:08:30.881Z,5.60
2022-12-23T16:11:00.898Z,5.60
2022-12-23T16:13:28.470Z,5.50
2022-12-23T16:16:15.583Z,5.60
2022-12-23T16:18:47.615Z,5.50
2022-12-23T16:21:15.335Z,5.50
2022-12-23T16:23:50.334Z,5.50
2022-12-23T16:26:17.359Z,5.50
2022-12-23T16:28:47.890Z,5.40
2022-12-23T16:31:18.519Z,5.40
2022-12-23T16:33:54.500Z,5.40
2022-12-23T16:36:27.507Z,5.40
2022-12-23T16:39:05.300Z,5.40
2022-12-23T16:41:32.956Z,5.30
2022-12-23T16:44:01.014Z,5.20
2022-12-23T16:46:32.121Z,5.10
2022-12-23T16:49:04.587Z,5.20
2022-12-23T16:51:34.286Z,5.10
2022-12-23T16:54:01.998Z,5.10
2022-12-23T16:56:33.939Z,5.10
2022-12-23T16:59:01.762Z,5.00
2022-12-23T17:01:32.116Z,5.00
2022-12-23T17:03:59.588Z,5.00
2022-12-23T17:06:26.723Z,5.00
2022-12-23T17:08:54.930Z,5.00
2022-12-23T17:11:33.994Z,5.00
2022-12-23T17:14:05.604Z,4.90
2022-12-23T17:16:35.037Z,4.90
2022-12-23T17:19:02.794Z,4.90
2022-12-23T17:21:39.675Z,4.90
2022-12-23T17:24:24.563Z,4.80
2022-12-23T17:26:52.293Z,4.80
2022-12-23T17:29:20.400Z,4.80
2022-12-23T17:31:48.564Z,4.80
2022-12-23T17:34:21.139Z,4.80
2022-12-23T17:36:50.785Z,4.80
2022-12-23T17:39:19.939Z,4.80
2022-12-23T17:41:47.287Z,4.80
2022-12-23T17:44:16.375Z,4.80
2022-12-23T17:46:44.412Z,4.80
2022-12-23T17:49:12.212Z,4.80
2022-12-23T17:51:41.415Z,4.80
2022-12-23T17:54:27.521Z,4.80
2022-12-23T17:56:54.606Z,4.80
2022-12-23T17:59:22.057Z,4.70
2022-12-23T18:01:49.428Z,4.70
2022-12-23T18:04:16.769Z,4.70
2022-12-23T18:06:43.727Z,4.70
2022-12-23T18:09:11.275Z,4.70
2022-12-23T18:11:43.941Z,4.70
2022-12-23T18:14:19.806Z,4.70
2022-12-23T18:16:46.957Z,4.70
2022-12-23T18:19:19.874Z,4.70
2022-12-23T18:21:47.335Z,4.70
2022-12-23T18:24:15.045Z,4.70
2022-12-23T18:26:42.162Z,4.70
2022-12-23T18:29:09.744Z,4.70
2022-12-23T18:31:43.950Z,4.70
2022-12-23T18:34:17.986Z,4.70
2022-12-23T18:36:45.598Z,4.70
2022-12-23T18:39:12.952Z,4.70
2022-12-23T18:41:40.405Z,4.70
2022-12-23T18:44:17.073Z,4.70
2022-12-23T18:46:44.162Z,4.70
2022-12-23T18:49:11.429Z,4.70
2022-12-23T18:51:38.394Z,4.70
2022-12-23T18:54:06.155Z,4.70
2022-12-23T18:56:33.156Z,4.70
2022-12-23T18:59:00.822Z,4.70
2022-12-23T19:01:27.909Z,4.70
2022-12-23T19:03:55.165Z,4.70
2022-12-23T19:06:22.266Z,4.70
2022-12-23T19:08:49.825Z,4.70
2022-12-23T19:11:20.194Z,4.70
2022-12-23T19:13:47.899Z,4.70
2022-12-23T19:16:17.410Z,4.70
2022-12-23T19:18:45.974Z,4.70
2022-12-23T19:21:13.725Z,4.70
2022-12-23T19:23:41.817Z,4.70
2022-12-23T19:26:10.842Z,4.70
2022-12-23T19:28:39.253Z,4.70
2022-12-23T19:31:15.005Z,4.80
2022-12-23T19:33:45.903Z,4.70
2022-12-23T19:36:19.099Z,4.70
2022-12-23T19:38:46.590Z,4.70
2022-12-23T19:41:13.675Z,4.70
2022-12-23T19:43:43.930Z,4.70
2022-12-23T19:46:12.094Z,4.70
2022-12-23T19:48:40.343Z,4.70
2022-12-23T19:51:10.709Z,4.70
2022-12-23T19:53:39.463Z,4.80
2022-12-23T19:56:12.089Z,4.70
2022-12-23T19:58:43.382Z,4.70
2022-12-23T20:01:13.476Z,4.70
2022-12-23T20:03:42.272Z,4.70
2022-12-23T20:06:15.837Z,4.80
2022-12-23T20:08:46.699Z,4.70
2022-12-23T20:11:20.186Z,4.80
2022-12-23T20:13:55.129Z,4.80
2022-12-23T20:16:22.923Z,4.80
2022-12-23T20:18:50.923Z,4.80
2022-12-23T20:21:18.859Z,4.80
2022-12-23T20:23:46.398Z,4.80
2022-12-23T20:26:14.789Z,4.70
2022-12-23T20:28:42.512Z,4.80
2022-12-23T20:31:16.331Z,4.70
2022-12-23T20:33:43.799Z,4.80
2022-12-23T20:36:14.701Z,4.80
2022-12-23T20:38:43.835Z,4.80
2022-12-23T20:41:14.028Z,4.70
2022-12-23T20:43:42.591Z,4.70
2022-12-23T20:46:14.213Z,4.70
2022-12-23T20:48:42.204Z,4.70
2022-12-23T20:51:15.759Z,4.80
2022-12-23T20:53:43.592Z,4.80
2022-12-23T20:56:16.748Z,4.80
2022-12-23T20:58:56.147Z,4.80
2022-12-23T21:01:38.101Z,4.80
2022-12-23T21:04:09.444Z,4.80
2022-12-23T21:06:36.870Z,4.70
2022-12-23T21:09:06.781Z,4.80
2022-12-23T21:11:38.554Z,4.80
2022-12-23T21:14:07.721Z,4.80
2022-12-23T21:16:36.800Z,4.80
2022-12-23T21:19:12.505Z,4.70
2022-12-23T21:21:39.446Z,4.70
2022-12-23T21:24:06.920Z,4.70
2022-12-23T21:26:35.102Z,4.70
2022-12-23T21:29:04.694Z,4.70
2022-12-23T21:31:34.782Z,4.80
2022-12-23T21:34:02.615Z,4.80
2022-12-23T21:36:32.384Z,4.80
2022-12-23T21:39:00.639Z,4.80
2022-12-23T21:41:34.537Z,4.70
2022-12-23T21:44:02.809Z,4.70
2022-12-23T21:46:30.140Z,4.70
2022-12-23T21:48:59.346Z,4.70
2022-12-23T21:51:35.047Z,4.70
2022-12-23T21:54:06.768Z,4.80
2022-12-23T21:56:33.790Z,4.70
2022-12-23T21:59:04.003Z,4.70
2022-12-23T22:01:31.646Z,4.80
2022-12-23T22:03:59.821Z,4.70
2022-12-23T22:06:37.185Z,4.70
2022-12-23T22:09:08.542Z,4.70
2022-12-23T22:11:37.405Z,4.70
2022-12-23T22:14:07.521Z,4.70
2022-12-23T22:16:35.777Z,4.70
2022-12-23T22:19:05.121Z,4.70
2022-12-23T22:21:33.486Z,4.70
2022-12-23T22:24:01.900Z,4.70
2022-12-23T22:26:31.625Z,4.60
2022-12-23T22:29:01.481Z,4.60
2022-12-23T22:31:47.624Z,4.60
2022-12-23T22:34:18.322Z,4.60
2022-12-23T22:36:45.891Z,4.60
2022-12-23T22:39:20.031Z,4.50
2022-12-23T22:41:49.728Z,4.50
2022-12-23T22:44:18.776Z,4.60
2022-12-23T22:46:45.929Z,4.50
2022-12-23T22:49:15.558Z,4.50
2022-12-23T22:51:42.889Z,4.60
2022-12-23T22:54:10.740Z,4.60
2022-12-23T22:56:38.050Z,4.60
2022-12-23T22:59:05.947Z,4.50
2022-12-23T23:01:35.498Z,4.50
2022-12-23T23:04:04.315Z,4.50
2022-12-23T23:06:40.127Z,4.50
2022-12-23T23:09:09.994Z,4.50
2022-12-23T23:11:37.250Z,4.50
2022-12-23T23:14:04.673Z,4.50
2022-12-23T23:16:33.311Z,4.50
2022-12-23T23:19:00.988Z,4.50
2022-12-23T23:21:28.125Z,4.50
2022-12-23T23:23:56.365Z,4.50
2022-12-23T23:26:27.236Z,4.50
2022-12-23T23:28:55.945Z,4.40
2022-12-23T23:34:11.998Z,4.40
2022-12-23T23:36:39.785Z,4.40
2022-12-23T23:39:07.413Z,4.40
2022-12-23T23:41:35.793Z,4.40
2022-12-23T23:44:03.199Z,4.40
2022-12-23T23:46:31.718Z,4.40
2022-12-23T23:48:59.438Z,4.40
2022-12-23T23:51:26.860Z,4.30
2022-12-23T23:53:54.473Z,4.30
2022-12-23T23:56:25.901Z,4.30
2022-12-23T23:58:54.287Z,4.30
